sensor_id;sensor_type;location;lat;lon;timestamp;pressure;altitude;pressure_sealevel;temperature;humidity
79463;BME280;68931;47.286;18.756;2023-04-25T00:00:15;99643.31;;;11.36;78.85
79463;BME280;68931;47.286;18.756;2023-04-25T00:00:46;99653.59;;;11.39;79.26
79463;BME280;68931;47.286;18.756;2023-04-25T00:01:16;99639.97;;;11.34;78.03
79463;BME280;68931;47.286;18.756;2023-04-25T00:01:47;99646.03;;;11.35;78.92
79463;BME280;68931;47.286;18.756;2023-04-25T00:02:18;99645.09;;;11.36;78.84
79463;BME280;68931;47.286;18.756;2023-04-25T00:02:49;99655.38;;;11.39;79.20
79463;BME280;68931;47.286;18.756;2023-04-25T00:03:20;99648.56;;;11.36;78.61
79463;BME280;68931;47.286;18.756;2023-04-25T00:03:51;99645.81;;;11.38;78.73
79463;BME280;68931;47.286;18.756;2023-04-25T00:04:22;99641.50;;;11.37;78.60
79463;BME280;68931;47.286;18.756;2023-04-25T00:04:52;99652.75;;;11.39;79.26
79463;BME280;68931;47.286;18.756;2023-04-25T00:05:23;99645.09;;;11.36;79.13
79463;BME280;68931;47.286;18.756;2023-04-25T00:05:54;99636.00;;;11.28;78.40
79463;BME280;68931;47.286;18.756;2023-04-25T00:06:27;99655.00;;;11.32;79.18
79463;BME280;68931;47.286;18.756;2023-04-25T00:06:57;99648.81;;;11.33;78.51
79463;BME280;68931;47.286;18.756;2023-04-25T00:07:31;99640.19;;;11.31;78.34
79463;BME280;68931;47.286;18.756;2023-04-25T00:08:03;99648.91;;;11.31;78.79
79463;BME280;68931;47.286;18.756;2023-04-25T00:08:34;99636.72;;;11.30;78.84
79463;BME280;68931;47.286;18.756;2023-04-25T00:09:05;99644.38;;;11.34;78.49
79463;BME280;68931;47.286;18.756;2023-04-25T00:09:37;99645.22;;;11.34;79.19
79463;BME280;68931;47.286;18.756;2023-04-25T00:10:09;99641.50;;;11.37;78.38
79463;BME280;68931;47.286;18.756;2023-04-25T00:10:41;99649.19;;;11.40;78.53
79463;BME280;68931;47.286;18.756;2023-04-25T00:11:12;99644.97;;;11.37;79.21
79463;BME280;68931;47.286;18.756;2023-04-25T00:11:42;99647.59;;;11.37;78.84
79463;BME280;68931;47.286;18.756;2023-04-25T00:12:14;99641.63;;;11.35;78.77
79463;BME280;68931;47.286;18.756;2023-04-25T00:12:46;99639.25;;;11.32;78.56
79463;BME280;68931;47.286;18.756;2023-04-25T00:13:16;99639.13;;;11.34;79.05
79463;BME280;68931;47.286;18.756;2023-04-25T00:13:47;99646.19;;;11.33;78.89
79463;BME280;68931;47.286;18.756;2023-04-25T00:14:19;99619.25;;;11.18;78.85
79463;BME280;68931;47.286;18.756;2023-04-25T00:14:50;99632.44;;;11.29;79.35
79463;BME280;68931;47.286;18.756;2023-04-25T00:15:21;99640.56;;;11.38;78.63
79463;BME280;68931;47.286;18.756;2023-04-25T00:15:52;99642.34;;;11.37;78.95
79463;BME280;68931;47.286;18.756;2023-04-25T00:16:23;99642.34;;;11.37;78.61
79463;BME280;68931;47.286;18.756;2023-04-25T00:16:54;99637.22;;;11.36;78.72
79463;BME280;68931;47.286;18.756;2023-04-25T00:17:25;99627.66;;;11.35;78.82
79463;BME280;68931;47.286;18.756;2023-04-25T00:17:57;99639.63;;;11.39;78.56
79463;BME280;68931;47.286;18.756;2023-04-25T00:18:28;99643.19;;;11.38;79.05
79463;BME280;68931;47.286;18.756;2023-04-25T00:19:03;99632.81;;;11.36;78.60
79463;BME280;68931;47.286;18.756;2023-04-25T00:19:34;99609.38;;;11.22;78.55
79463;BME280;68931;47.286;18.756;2023-04-25T00:20:06;99643.09;;;11.39;78.20
79463;BME280;68931;47.286;18.756;2023-04-25T00:20:39;99639.63;;;11.39;78.86
79463;BME280;68931;47.286;18.756;2023-04-25T00:21:10;99635.31;;;11.38;79.07
79463;BME280;68931;47.286;18.756;2023-04-25T00:21:41;99633.88;;;11.34;78.53
79463;BME280;68931;47.286;18.756;2023-04-25T00:22:13;99626.13;;;11.32;78.74
79463;BME280;68931;47.286;18.756;2023-04-25T00:22:44;99625.88;;;11.35;78.66
79463;BME280;68931;47.286;18.756;2023-04-25T00:23:16;99626.00;;;11.34;78.58
79463;BME280;68931;47.286;18.756;2023-04-25T00:23:48;99626.00;;;11.34;78.96
79463;BME280;68931;47.286;18.756;2023-04-25T00:24:19;99628.63;;;11.34;79.10
79463;BME280;68931;47.286;18.756;2023-04-25T00:24:50;99633.53;;;11.38;78.23
79463;BME280;68931;47.286;18.756;2023-04-25T00:25:20;99633.41;;;11.40;78.94
79463;BME280;68931;47.286;18.756;2023-04-25T00:25:51;99633.41;;;11.40;78.16
79463;BME280;68931;47.286;18.756;2023-04-25T00:26:23;99640.56;;;11.38;78.32
79463;BME280;68931;47.286;18.756;2023-04-25T00:26:53;99622.53;;;11.33;78.66
79463;BME280;68931;47.286;18.756;2023-04-25T00:27:24;99629.22;;;11.37;78.38
79463;BME280;68931;47.286;18.756;2023-04-25T00:27:55;99617.13;;;11.23;77.89
79463;BME280;68931;47.286;18.756;2023-04-25T00:28:25;99635.53;;;11.35;78.54
79463;BME280;68931;47.286;18.756;2023-04-25T00:28:56;99635.31;;;11.38;78.76
79463;BME280;68931;47.286;18.756;2023-04-25T00:29:27;99626.84;;;11.34;79.17
79463;BME280;68931;47.286;18.756;2023-04-25T00:29:57;99636.38;;;11.35;78.07
79463;BME280;68931;47.286;18.756;2023-04-25T00:30:28;99625.88;;;11.35;78.88
79463;BME280;68931;47.286;18.756;2023-04-25T00:30:59;99626.84;;;11.34;78.73
79463;BME280;68931;47.286;18.756;2023-04-25T00:31:30;99615.72;;;11.30;78.85
79463;BME280;68931;47.286;18.756;2023-04-25T00:32:01;99631.00;;;11.37;78.42
79463;BME280;68931;47.286;18.756;2023-04-25T00:32:35;99631.25;;;11.34;78.27
79463;BME280;68931;47.286;18.756;2023-04-25T00:33:06;99624.22;;;11.34;78.37
79463;BME280;68931;47.286;18.756;2023-04-25T00:33:37;99617.63;;;11.28;77.95
79463;BME280;68931;47.286;18.756;2023-04-25T00:34:07;99626.00;;;11.34;77.91
79463;BME280;68931;47.286;18.756;2023-04-25T00:34:38;99609.84;;;11.27;78.78
79463;BME280;68931;47.286;18.756;2023-04-25T00:35:09;99611.63;;;11.26;78.37
79463;BME280;68931;47.286;18.756;2023-04-25T00:35:40;99618.97;;;11.34;78.13
79463;BME280;68931;47.286;18.756;2023-04-25T00:36:11;99616.44;;;11.32;78.34
79463;BME280;68931;47.286;18.756;2023-04-25T00:36:41;99612.47;;;11.27;78.83
79463;BME280;68931;47.286;18.756;2023-04-25T00:37:12;99628.63;;;11.34;77.61
79463;BME280;68931;47.286;18.756;2023-04-25T00:37:43;99621.09;;;11.29;78.31
79463;BME280;68931;47.286;18.756;2023-04-25T00:38:17;99614.16;;;11.28;78.30
79463;BME280;68931;47.286;18.756;2023-04-25T00:38:48;99629.47;;;11.34;78.20
79463;BME280;68931;47.286;18.756;2023-04-25T00:39:18;99621.59;;;11.34;78.14
79463;BME280;68931;47.286;18.756;2023-04-25T00:39:49;99619.91;;;11.33;78.22
79463;BME280;68931;47.286;18.756;2023-04-25T00:40:21;99625.88;;;11.35;78.26
79463;BME280;68931;47.286;18.756;2023-04-25T00:40:51;99615.72;;;11.30;77.77
79463;BME280;68931;47.286;18.756;2023-04-25T00:41:25;99624.44;;;11.31;78.12
79463;BME280;68931;47.286;18.756;2023-04-25T00:41:56;99628.84;;;11.30;77.79
79463;BME280;68931;47.286;18.756;2023-04-25T00:42:28;99617.63;;;11.28;77.87
79463;BME280;68931;47.286;18.756;2023-04-25T00:42:59;99618.56;;;11.27;77.82
79463;BME280;68931;47.286;18.756;2023-04-25T00:43:32;99624.53;;;11.29;77.75
79463;BME280;68931;47.286;18.756;2023-04-25T00:44:04;99613.56;;;11.24;78.36
79463;BME280;68931;47.286;18.756;2023-04-25T00:44:37;99612.47;;;11.27;78.16
79463;BME280;68931;47.286;18.756;2023-04-25T00:45:12;99618.69;;;11.26;78.40
79463;BME280;68931;47.286;18.756;2023-04-25T00:45:47;99609.25;;;11.23;77.95
79463;BME280;68931;47.286;18.756;2023-04-25T00:46:18;99616.88;;;11.26;77.96
79463;BME280;68931;47.286;18.756;2023-04-25T00:46:49;99627.19;;;11.29;77.43
79463;BME280;68931;47.286;18.756;2023-04-25T00:47:20;99615.94;;;11.27;78.43
79463;BME280;68931;47.286;18.756;2023-04-25T00:47:51;99623.94;;;11.26;77.38
79463;BME280;68931;47.286;18.756;2023-04-25T00:48:22;99613.88;;;11.20;77.64
79463;BME280;68931;47.286;18.756;2023-04-25T00:48:53;99617.34;;;11.20;77.85
79463;BME280;68931;47.286;18.756;2023-04-25T00:49:24;99619.03;;;11.21;77.47
79463;BME280;68931;47.286;18.756;2023-04-25T00:49:54;99623.56;;;11.19;77.72
79463;BME280;68931;47.286;18.756;2023-04-25T00:50:25;99617.97;;;11.24;77.46
79463;BME280;68931;47.286;18.756;2023-04-25T00:50:59;99619.25;;;11.18;77.44
79463;BME280;68931;47.286;18.756;2023-04-25T00:51:30;99618.19;;;11.21;77.77
79463;BME280;68931;47.286;18.756;2023-04-25T00:52:04;99620.34;;;11.16;77.77
79463;BME280;68931;47.286;18.756;2023-04-25T00:52:38;99631.94;;;11.24;77.33
79463;BME280;68931;47.286;18.756;2023-04-25T00:53:10;99627.38;;;11.26;77.59
79463;BME280;68931;47.286;18.756;2023-04-25T00:53:41;99621.66;;;11.21;77.12
79463;BME280;68931;47.286;18.756;2023-04-25T00:54:13;99626.69;;;11.24;77.60
79463;BME280;68931;47.286;18.756;2023-04-25T00:54:44;99629.44;;;11.23;77.89
79463;BME280;68931;47.286;18.756;2023-04-25T00:55:21;99631.09;;;11.24;77.96
79463;BME280;68931;47.286;18.756;2023-04-25T00:55:52;99620.94;;;11.19;77.16
79463;BME280;68931;47.286;18.756;2023-04-25T00:56:23;99616.63;;;11.18;77.36
79463;BME280;68931;47.286;18.756;2023-04-25T00:56:54;99632.88;;;11.23;77.76
79463;BME280;68931;47.286;18.756;2023-04-25T00:57:25;99625.22;;;11.20;77.81
79463;BME280;68931;47.286;18.756;2023-04-25T00:57:56;99624.28;;;11.21;78.23
79463;BME280;68931;47.286;18.756;2023-04-25T00:58:29;99629.44;;;11.23;78.59
79463;BME280;68931;47.286;18.756;2023-04-25T00:59:00;99620.09;;;11.19;77.46
79463;BME280;68931;47.286;18.756;2023-04-25T00:59:31;99615.94;;;11.16;78.14
79463;BME280;68931;47.286;18.756;2023-04-25T01:00:03;99619.38;;;11.17;77.87
79463;BME280;68931;47.286;18.756;2023-04-25T01:00:36;99617.56;;;11.17;77.53
79463;BME280;68931;47.286;18.756;2023-04-25T01:01:07;99616.88;;;11.15;77.64
79463;BME280;68931;47.286;18.756;2023-04-25T01:01:39;99628.22;;;11.16;77.85
79463;BME280;68931;47.286;18.756;2023-04-25T01:02:10;99617.72;;;11.16;77.20
79463;BME280;68931;47.286;18.756;2023-04-25T01:02:40;99617.09;;;11.12;77.53
79463;BME280;68931;47.286;18.756;2023-04-25T01:03:16;99627.59;;;11.12;77.99
79463;BME280;68931;47.286;18.756;2023-04-25T01:03:49;99624.13;;;11.12;77.53
79463;BME280;68931;47.286;18.756;2023-04-25T01:04:20;99629.25;;;11.13;77.28
79463;BME280;68931;47.286;18.756;2023-04-25T01:04:51;99620.88;;;11.08;77.67
79463;BME280;68931;47.286;18.756;2023-04-25T01:05:22;99630.22;;;11.12;77.91
79463;BME280;68931;47.286;18.756;2023-04-25T01:05:53;99628.63;;;11.10;78.17
79463;BME280;68931;47.286;18.756;2023-04-25T01:06:24;99631.16;;;11.11;77.51
79463;BME280;68931;47.286;18.756;2023-04-25T01:06:55;99629.59;;;11.09;77.57
79463;BME280;68931;47.286;18.756;2023-04-25T01:07:26;99627.69;;;11.11;78.12
79463;BME280;68931;47.286;18.756;2023-04-25T01:07:59;99632.94;;;11.11;77.13
79463;BME280;68931;47.286;18.756;2023-04-25T01:08:30;99630.44;;;11.09;77.52
79463;BME280;68931;47.286;18.756;2023-04-25T01:09:01;99622.38;;;11.00;76.88
79463;BME280;68931;47.286;18.756;2023-04-25T01:09:33;99623.75;;;11.05;77.36
79463;BME280;68931;47.286;18.756;2023-04-25T01:10:05;99627.31;;;11.04;77.18
79463;BME280;68931;47.286;18.756;2023-04-25T01:10:36;99619.66;;;11.01;76.52
79463;BME280;68931;47.286;18.756;2023-04-25T01:11:07;99622.28;;;11.01;76.78
79463;BME280;68931;47.286;18.756;2023-04-25T01:11:38;99628.88;;;11.07;77.45
79463;BME280;68931;47.286;18.756;2023-04-25T01:12:10;99629.59;;;11.09;77.16
79463;BME280;68931;47.286;18.756;2023-04-25T01:12:41;99629.84;;;11.06;76.85
79463;BME280;68931;47.286;18.756;2023-04-25T01:13:12;99625.53;;;11.05;75.97
79463;BME280;68931;47.286;18.756;2023-04-25T01:13:43;99615.34;;;11.00;76.13
79463;BME280;68931;47.286;18.756;2023-04-25T01:14:14;99623.22;;;11.00;76.58
79463;BME280;68931;47.286;18.756;2023-04-25T01:14:46;99629.72;;;11.07;77.01
79463;BME280;68931;47.286;18.756;2023-04-25T01:15:17;99615.50;;;10.99;77.09
79463;BME280;68931;47.286;18.756;2023-04-25T01:15:47;99626.25;;;11.07;76.30
79463;BME280;68931;47.286;18.756;2023-04-25T01:16:18;99628.03;;;11.06;76.03
79463;BME280;68931;47.286;18.756;2023-04-25T01:16:49;99626.47;;;11.04;75.76
79463;BME280;68931;47.286;18.756;2023-04-25T01:17:20;99627.09;;;11.07;75.47
79463;BME280;68931;47.286;18.756;2023-04-25T01:17:51;99614.66;;;10.98;76.09
79463;BME280;68931;47.286;18.756;2023-04-25T01:18:23;99618.25;;;11.08;75.60
79463;BME280;68931;47.286;18.756;2023-04-25T01:18:54;99608.56;;;10.98;74.98
79463;BME280;68931;47.286;18.756;2023-04-25T01:19:25;99627.94;;;11.08;75.56
79463;BME280;68931;47.286;18.756;2023-04-25T01:19:56;99624.59;;;11.06;76.37
79463;BME280;68931;47.286;18.756;2023-04-25T01:20:28;99621.44;;;11.01;75.76
79463;BME280;68931;47.286;18.756;2023-04-25T01:21:07;99618.50;;;11.05;75.36
79463;BME280;68931;47.286;18.756;2023-04-25T01:21:39;99620.06;;;11.08;75.47
79463;BME280;68931;47.286;18.756;2023-04-25T01:22:10;99606.53;;;11.01;75.51
79463;BME280;68931;47.286;18.756;2023-04-25T01:22:42;99616.72;;;11.06;75.10
79463;BME280;68931;47.286;18.756;2023-04-25T01:23:16;99615.50;;;11.10;74.68
79463;BME280;68931;47.286;18.756;2023-04-25T01:23:47;99626.84;;;11.10;74.54
79463;BME280;68931;47.286;18.756;2023-04-25T01:24:18;99618.25;;;11.08;74.68
79463;BME280;68931;47.286;18.756;2023-04-25T01:24:49;99625.91;;;11.11;74.92
79463;BME280;68931;47.286;18.756;2023-04-25T01:25:20;99610.72;;;11.04;74.02
79463;BME280;68931;47.286;18.756;2023-04-25T01:25:51;99620.06;;;11.08;74.16
79463;BME280;68931;47.286;18.756;2023-04-25T01:26:25;99620.75;;;11.10;74.85
79463;BME280;68931;47.286;18.756;2023-04-25T01:26:56;99607.88;;;11.07;73.97
79463;BME280;68931;47.286;18.756;2023-04-25T01:27:30;99612.78;;;11.11;73.77
79463;BME280;68931;47.286;18.756;2023-04-25T01:28:01;99608.94;;;11.04;73.66
79463;BME280;68931;47.286;18.756;2023-04-25T01:28:33;99610.50;;;11.07;74.21
79463;BME280;68931;47.286;18.756;2023-04-25T01:29:04;99615.88;;;11.05;74.17
79463;BME280;68931;47.286;18.756;2023-04-25T01:29:36;99622.56;;;11.09;73.87
79463;BME280;68931;47.286;18.756;2023-04-25T01:30:07;99625.19;;;11.09;73.88
79463;BME280;68931;47.286;18.756;2023-04-25T01:30:38;99620.88;;;11.08;73.79
79463;BME280;68931;47.286;18.756;2023-04-25T01:31:11;99619.22;;;11.07;73.67
79463;BME280;68931;47.286;18.756;2023-04-25T01:31:43;99608.94;;;11.04;74.32
79463;BME280;68931;47.286;18.756;2023-04-25T01:32:15;99622.69;;;11.08;73.87
79463;BME280;68931;47.286;18.756;2023-04-25T01:32:47;99625.19;;;11.09;73.37
79463;BME280;68931;47.286;18.756;2023-04-25T01:33:19;99611.34;;;11.07;73.67
79463;BME280;68931;47.286;18.756;2023-04-25T01:33:52;99610.38;;;11.08;73.30
79463;BME280;68931;47.286;18.756;2023-04-25T01:34:23;99618.13;;;11.10;73.51
79463;BME280;68931;47.286;18.756;2023-04-25T01:34:53;99607.88;;;11.07;73.42
79463;BME280;68931;47.286;18.756;2023-04-25T01:35:24;99601.78;;;11.06;73.56
79463;BME280;68931;47.286;18.756;2023-04-25T01:35:55;99602.75;;;11.05;73.60
79463;BME280;68931;47.286;18.756;2023-04-25T01:36:26;99605.81;;;10.99;73.39
79463;BME280;68931;47.286;18.756;2023-04-25T01:36:59;99614.69;;;11.09;72.42
79463;BME280;68931;47.286;18.756;2023-04-25T01:37:32;99609.78;;;11.05;72.44
79463;BME280;68931;47.286;18.756;2023-04-25T01:38:02;99604.06;;;11.11;73.40
79463;BME280;68931;47.286;18.756;2023-04-25T01:38:33;99611.22;;;11.09;73.29
79463;BME280;68931;47.286;18.756;2023-04-25T01:39:07;99612.78;;;11.11;73.50
79463;BME280;68931;47.286;18.756;2023-04-25T01:39:38;99619.81;;;11.11;73.12
79463;BME280;68931;47.286;18.756;2023-04-25T01:40:10;99613.72;;;11.10;72.28
79463;BME280;68931;47.286;18.756;2023-04-25T01:40:45;99617.31;;;11.09;72.51
79463;BME280;68931;47.286;18.756;2023-04-25T01:41:16;99607.53;;;11.11;72.69
79463;BME280;68931;47.286;18.756;2023-04-25T01:41:48;99607.25;;;11.03;72.37
79463;BME280;68931;47.286;18.756;2023-04-25T01:42:19;99609.66;;;11.06;72.91
79463;BME280;68931;47.286;18.756;2023-04-25T01:42:51;99608.38;;;11.12;72.96
79463;BME280;68931;47.286;18.756;2023-04-25T01:43:22;99612.78;;;11.11;72.51
79463;BME280;68931;47.286;18.756;2023-04-25T01:43:53;99606.81;;;11.09;72.75
79463;BME280;68931;47.286;18.756;2023-04-25T01:44:27;99611.22;;;11.09;72.09
79463;BME280;68931;47.286;18.756;2023-04-25T01:44:58;99618.97;;;11.10;72.87
79463;BME280;68931;47.286;18.756;2023-04-25T01:45:29;99615.63;;;11.08;73.38
79463;BME280;68931;47.286;18.756;2023-04-25T01:45:59;99613.72;;;11.10;72.96
79463;BME280;68931;47.286;18.756;2023-04-25T01:46:30;99619.81;;;11.11;72.48
79463;BME280;68931;47.286;18.756;2023-04-25T01:47:01;99612.88;;;11.10;72.31
79463;BME280;68931;47.286;18.756;2023-04-25T01:47:32;99611.22;;;11.09;72.91
79463;BME280;68931;47.286;18.756;2023-04-25T01:48:02;99609.56;;;11.08;72.39
79463;BME280;68931;47.286;18.756;2023-04-25T01:48:33;99616.59;;;11.07;72.31
79463;BME280;68931;47.286;18.756;2023-04-25T01:49:04;99616.59;;;11.07;73.14
79463;BME280;68931;47.286;18.756;2023-04-25T01:49:35;99601.38;;;11.00;73.13
79463;BME280;68931;47.286;18.756;2023-04-25T01:50:07;99613.00;;;11.08;72.92
79463;BME280;68931;47.286;18.756;2023-04-25T01:50:39;99613.97;;;11.07;73.02
79463;BME280;68931;47.286;18.756;2023-04-25T01:51:10;99598.56;;;11.03;72.39
79463;BME280;68931;47.286;18.756;2023-04-25T01:51:42;99612.28;;;11.06;71.79
79463;BME280;68931;47.286;18.756;2023-04-25T01:52:13;99592.72;;;10.99;72.48
79463;BME280;68931;47.286;18.756;2023-04-25T01:52:47;99604.41;;;11.06;72.86
79463;BME280;68931;47.286;18.756;2023-04-25T01:53:17;99605.38;;;11.05;71.92
79463;BME280;68931;47.286;18.756;2023-04-25T01:53:48;99618.13;;;11.10;72.62
79463;BME280;68931;47.286;18.756;2023-04-25T01:54:19;99615.63;;;11.08;72.05
79463;BME280;68931;47.286;18.756;2023-04-25T01:54:51;99609.88;;;11.03;71.55
79463;BME280;68931;47.286;18.756;2023-04-25T01:55:22;99603.69;;;11.04;71.83
79463;BME280;68931;47.286;18.756;2023-04-25T01:55:52;99612.41;;;11.05;72.48
79463;BME280;68931;47.286;18.756;2023-04-25T01:56:23;99604.75;;;11.02;72.31
79463;BME280;68931;47.286;18.756;2023-04-25T01:56:57;99620.88;;;11.08;72.37
79463;BME280;68931;47.286;18.756;2023-04-25T01:57:28;99581.69;;;10.94;71.68
79463;BME280;68931;47.286;18.756;2023-04-25T01:57:58;99611.47;;;11.06;72.30
79463;BME280;68931;47.286;18.756;2023-04-25T01:58:31;99617.03;;;11.01;72.08
79463;BME280;68931;47.286;18.756;2023-04-25T01:59:01;99603.22;;;10.99;72.84
79463;BME280;68931;47.286;18.756;2023-04-25T01:59:32;99614.81;;;11.08;72.78
79463;BME280;68931;47.286;18.756;2023-04-25T02:00:05;99602.00;;;11.03;72.47
79463;BME280;68931;47.286;18.756;2023-04-25T02:00:37;99604.31;;;11.08;72.41
79463;BME280;68931;47.286;18.756;2023-04-25T02:01:09;99604.31;;;11.08;72.36
79463;BME280;68931;47.286;18.756;2023-04-25T02:01:40;99601.16;;;11.03;71.46
79463;BME280;68931;47.286;18.756;2023-04-25T02:02:10;99604.84;;;11.00;72.17
79463;BME280;68931;47.286;18.756;2023-04-25T02:02:41;99613.13;;;11.07;72.38
79463;BME280;68931;47.286;18.756;2023-04-25T02:03:12;99591.88;;;10.99;72.42
79463;BME280;68931;47.286;18.756;2023-04-25T02:03:43;99601.38;;;11.00;72.57
79463;BME280;68931;47.286;18.756;2023-04-25T02:04:14;99617.75;;;11.03;71.53
79463;BME280;68931;47.286;18.756;2023-04-25T02:04:45;99613.47;;;11.02;72.41
79463;BME280;68931;47.286;18.756;2023-04-25T02:05:16;99612.41;;;11.05;71.72
79463;BME280;68931;47.286;18.756;2023-04-25T02:05:47;99605.09;;;10.97;73.00
79463;BME280;68931;47.286;18.756;2023-04-25T02:06:18;99602.75;;;11.05;72.85
79463;BME280;68931;47.286;18.756;2023-04-25T02:06:49;99600.59;;;10.99;71.85
79463;BME280;68931;47.286;18.756;2023-04-25T02:07:20;99605.59;;;11.02;72.25
79463;BME280;68931;47.286;18.756;2023-04-25T02:07:51;99604.16;;;10.98;72.75
79463;BME280;68931;47.286;18.756;2023-04-25T02:08:21;99602.84;;;11.04;72.52
79463;BME280;68931;47.286;18.756;2023-04-25T02:08:52;99597.44;;;10.94;72.69
79463;BME280;68931;47.286;18.756;2023-04-25T02:09:23;99606.53;;;11.01;71.90
79463;BME280;68931;47.286;18.756;2023-04-25T02:09:53;99622.91;;;11.05;72.92
79463;BME280;68931;47.286;18.756;2023-04-25T02:10:24;99606.41;;;11.03;72.08
79463;BME280;68931;47.286;18.756;2023-04-25T02:10:55;99615.88;;;11.05;71.92
79463;BME280;68931;47.286;18.756;2023-04-25T02:11:25;99613.13;;;11.07;71.68
79463;BME280;68931;47.286;18.756;2023-04-25T02:11:58;99604.84;;;11.00;72.07
79463;BME280;68931;47.286;18.756;2023-04-25T02:12:29;99610.63;;;11.05;72.22
79463;BME280;68931;47.286;18.756;2023-04-25T02:12:59;99616.81;;;11.04;72.21
79463;BME280;68931;47.286;18.756;2023-04-25T02:13:30;99590.97;;;10.87;72.05
79463;BME280;68931;47.286;18.756;2023-04-25T02:14:04;99611.78;;;11.01;71.95
79463;BME280;68931;47.286;18.756;2023-04-25T02:14:34;99616.81;;;11.04;71.60
79463;BME280;68931;47.286;18.756;2023-04-25T02:15:05;99599.00;;;10.97;71.73
79463;BME280;68931;47.286;18.756;2023-04-25T02:15:36;99616.72;;;11.06;72.33
79463;BME280;68931;47.286;18.756;2023-04-25T02:16:07;99613.25;;;11.05;72.28
79463;BME280;68931;47.286;18.756;2023-04-25T02:16:37;99610.00;;;11.02;72.22
79463;BME280;68931;47.286;18.756;2023-04-25T02:17:10;99612.50;;;11.03;72.22
79463;BME280;68931;47.286;18.756;2023-04-25T02:17:40;99606.53;;;11.01;73.33
79463;BME280;68931;47.286;18.756;2023-04-25T02:18:11;99608.09;;;11.04;72.00
79463;BME280;68931;47.286;18.756;2023-04-25T02:18:42;99611.47;;;11.06;71.96
79463;BME280;68931;47.286;18.756;2023-04-25T02:19:12;99600.59;;;10.99;71.76
79463;BME280;68931;47.286;18.756;2023-04-25T02:19:44;99606.94;;;11.08;71.46
79463;BME280;68931;47.286;18.756;2023-04-25T02:20:15;99601.53;;;10.98;72.18
79463;BME280;68931;47.286;18.756;2023-04-25T02:20:50;99609.03;;;11.03;72.22
79463;BME280;68931;47.286;18.756;2023-04-25T02:21:21;99621.00;;;11.07;72.23
79463;BME280;68931;47.286;18.756;2023-04-25T02:21:57;99618.50;;;11.05;71.61
79463;BME280;68931;47.286;18.756;2023-04-25T02:22:28;99622.06;;;11.04;71.24
79463;BME280;68931;47.286;18.756;2023-04-25T02:23:00;99612.72;;;11.00;71.86
79463;BME280;68931;47.286;18.756;2023-04-25T02:23:31;99618.72;;;11.02;71.84
79463;BME280;68931;47.286;18.756;2023-04-25T02:24:02;99619.53;;;11.03;71.23
79463;BME280;68931;47.286;18.756;2023-04-25T02:24:33;99617.13;;;11.00;71.67
79463;BME280;68931;47.286;18.756;2023-04-25T02:25:05;99615.59;;;10.97;71.72
79463;BME280;68931;47.286;18.756;2023-04-25T02:25:36;99616.19;;;11.01;72.59
79463;BME280;68931;47.286;18.756;2023-04-25T02:26:07;99610.94;;;11.01;72.19
79463;BME280;68931;47.286;18.756;2023-04-25T02:26:37;99616.53;;;10.96;71.81
79463;BME280;68931;47.286;18.756;2023-04-25T02:27:08;99618.81;;;11.01;71.51
79463;BME280;68931;47.286;18.756;2023-04-25T02:27:39;99623.84;;;11.04;71.58
79463;BME280;68931;47.286;18.756;2023-04-25T02:28:10;99619.53;;;11.03;72.54
79463;BME280;68931;47.286;18.756;2023-04-25T02:28:40;99621.22;;;11.04;72.68
79463;BME280;68931;47.286;18.756;2023-04-25T02:29:11;99620.28;;;11.05;72.09
79463;BME280;68931;47.286;18.756;2023-04-25T02:29:42;99613.69;;;10.99;72.63
79463;BME280;68931;47.286;18.756;2023-04-25T02:30:12;99589.28;;;10.86;72.08
79463;BME280;68931;47.286;18.756;2023-04-25T02:30:43;99608.66;;;10.96;71.60
79463;BME280;68931;47.286;18.756;2023-04-25T02:31:14;99619.75;;;11.00;71.75
79463;BME280;68931;47.286;18.756;2023-04-25T02:31:45;99618.72;;;11.02;71.46
79463;BME280;68931;47.286;18.756;2023-04-25T02:32:15;99624.78;;;11.03;71.39
79463;BME280;68931;47.286;18.756;2023-04-25T02:32:46;99607.44;;;10.89;71.40
79463;BME280;68931;47.286;18.756;2023-04-25T02:33:17;99617.50;;;10.95;71.03
79463;BME280;68931;47.286;18.756;2023-04-25T02:33:48;99617.13;;;11.00;71.66
79463;BME280;68931;47.286;18.756;2023-04-25T02:34:18;99615.34;;;11.00;71.84
79463;BME280;68931;47.286;18.756;2023-04-25T02:34:49;99606.03;;;10.96;71.70
79463;BME280;68931;47.286;18.756;2023-04-25T02:35:20;99612.88;;;10.99;71.73
79463;BME280;68931;47.286;18.756;2023-04-25T02:35:50;99603.53;;;10.94;71.18
79463;BME280;68931;47.286;18.756;2023-04-25T02:36:21;99611.19;;;10.98;71.10
79463;BME280;68931;47.286;18.756;2023-04-25T02:36:52;99615.59;;;10.97;71.44
79463;BME280;68931;47.286;18.756;2023-04-25T02:37:22;99612.03;;;10.98;71.45
79463;BME280;68931;47.286;18.756;2023-04-25T02:37:55;99618.81;;;11.01;71.53
79463;BME280;68931;47.286;18.756;2023-04-25T02:38:26;99614.97;;;10.93;71.94
79463;BME280;68931;47.286;18.756;2023-04-25T02:38:57;99615.59;;;10.97;72.01
79463;BME280;68931;47.286;18.756;2023-04-25T02:39:27;99619.06;;;10.98;71.59
79463;BME280;68931;47.286;18.756;2023-04-25T02:39:58;99618.94;;;10.99;72.14
79463;BME280;68931;47.286;18.756;2023-04-25T02:40:29;99612.03;;;10.98;71.99
79463;BME280;68931;47.286;18.756;2023-04-25T02:41:00;99621.56;;;10.99;71.17
79463;BME280;68931;47.286;18.756;2023-04-25T02:41:31;99607.00;;;10.95;71.32
79463;BME280;68931;47.286;18.756;2023-04-25T02:42:01;99616.03;;;10.91;71.36
79463;BME280;68931;47.286;18.756;2023-04-25T02:42:33;99615.81;;;10.94;71.62
79463;BME280;68931;47.286;18.756;2023-04-25T02:43:03;99615.69;;;10.96;71.64
79463;BME280;68931;47.286;18.756;2023-04-25T02:43:34;99614.38;;;10.90;72.13
79463;BME280;68931;47.286;18.756;2023-04-25T02:44:05;99614.88;;;10.95;71.75